Lake Lafayette, Missouri
Current Conditions -  °F | °C
As of 1:15 PM on Friday 24 Oct 2014 (Local Time) from KRCM Reporting Station
Overcast Overcast  
Wind Chill: 70°   Ceiling: 4500
Heat Index: 70°   Visibility: 10mi
Dew Point: 59°   Wind: 8mph
Humidity: 68%   Direction: 170°S
Pressure: 30.02"   Gusts: NA
Location:  38.9828°N, 93.9522°W
Report Text: KRCM 241815Z AUTO 17007KT 10SM OVC045 21/15 A3002 RMK AO2
Loading
Personal Weather Stations






























Interactive Weather Map
Tropical Storm Tracking
New forecast layout! Learn more

10-Day Weather Forecast

Advertisements
Track Severe Weather on mobile